Time;durP1;ratioP1;P1;durP2;ratioP2;P2;SDS_P1;SDS_P2;PMS_P1;PMS_P2;Temp;Humidity;BMP_temperature;BMP_pressure;BME280_temperature;BME280_humidity;BME280_pressure;Samples;Min_cycle;Max_cycle;Signal;HPM_P1;HPM_P2
2023/11/28 00:01:44;;;;;;;12.82;8.07;;;0.40;99.90;;;1.26;100.00;98809.91;5033703;28;20057;-87
2023/11/28 00:04:10;;;;;;;14.32;9.15;;;0.40;99.90;;;1.28;100.00;98813.22;5040180;28;20038;-86
2023/11/28 00:06:35;;;;;;;15.30;9.10;;;0.40;99.90;;;1.39;100.00;98830.63;5041281;28;20030;-86
2023/11/28 00:09:05;;;;;;;13.35;8.18;;;0.40;99.90;;;1.42;100.00;98819.47;5048363;28;20460;-86
2023/11/28 00:11:30;;;;;;;12.50;8.23;;;0.40;99.90;;;1.21;100.00;98833.88;5012937;28;20034;-87
2023/11/28 00:13:56;;;;;;;13.05;8.63;;;0.40;99.90;;;1.25;100.00;98823.56;5025059;28;20038;-87
2023/11/28 00:16:22;;;;;;;14.00;8.80;;;0.40;99.90;;;1.34;100.00;98821.53;5042634;28;20473;-87
2023/11/28 00:18:49;;;;;;;14.65;8.85;;;0.40;99.90;;;1.32;100.00;98837.00;5009832;28;20041;-86
2023/11/28 00:21:15;;;;;;;12.95;8.30;;;0.40;99.90;;;1.23;100.00;98831.81;5017714;28;20038;-87
2023/11/28 00:23:41;;;;;;;13.10;8.15;;;0.40;99.90;;;1.17;100.00;98821.03;5026787;28;20069;-85
2023/11/28 00:26:06;;;;;;;12.60;7.93;;;0.40;99.90;;;1.19;100.00;98816.28;5001796;28;20033;-86
2023/11/28 00:28:32;;;;;;;13.18;7.70;;;0.30;99.90;;;1.07;100.00;98811.50;5021996;28;20049;-85
2023/11/28 00:30:58;;;;;;;12.05;7.60;;;0.30;99.90;;;1.27;100.00;98833.06;5013220;28;20049;-86
2023/11/28 00:33:24;;;;;;;13.02;7.72;;;0.30;99.90;;;1.08;100.00;98831.97;5037530;28;20037;-86
2023/11/28 00:35:49;;;;;;;12.15;7.60;;;0.30;99.90;;;1.05;100.00;98810.03;5030342;28;20037;-86
2023/11/28 00:38:17;;;;;;;12.00;7.07;;;0.30;99.90;;;0.90;100.00;98811.00;5012103;28;20387;-84
2023/11/28 00:40:44;;;;;;;13.90;8.27;;;0.30;99.90;;;1.26;100.00;98828.72;5036155;28;20067;-86
2023/11/28 00:43:10;;;;;;;11.15;6.80;;;0.30;99.90;;;1.19;100.00;98841.31;5029383;28;20040;-86
2023/11/28 00:45:38;;;;;;;11.27;6.63;;;0.30;99.90;;;0.90;100.00;98816.38;5014895;28;20049;-85
2023/11/28 00:48:05;;;;;;;12.98;6.97;;;0.30;99.90;;;1.04;100.00;98822.66;5024625;28;20038;-83
2023/11/28 00:50:31;;;;;;;12.73;7.50;;;0.30;99.90;;;1.02;100.00;98829.22;5010729;28;20049;-85
2023/11/28 00:52:57;;;;;;;12.75;7.63;;;0.30;99.90;;;1.22;100.00;98845.47;5025227;28;20478;-85
2023/11/28 00:55:24;;;;;;;11.40;7.10;;;0.30;99.90;;;1.37;100.00;98827.31;5014774;28;20037;-86
2023/11/28 00:57:50;;;;;;;13.15;7.75;;;0.30;99.90;;;1.55;100.00;98850.94;5011364;28;20037;-86
2023/11/28 01:00:17;;;;;;;12.20;7.43;;;0.30;99.90;;;1.36;100.00;98840.97;5021581;28;20065;-85
2023/11/28 01:02:42;;;;;;;13.30;7.75;;;0.30;99.90;;;1.29;100.00;98846.31;5027748;28;20088;-84
2023/11/28 01:05:08;;;;;;;14.40;7.47;;;0.30;99.90;;;1.33;100.00;98863.69;5017511;28;20485;-84
2023/11/28 01:07:35;;;;;;;13.18;8.15;;;0.30;99.90;;;1.27;100.00;98865.31;5013395;28;20101;-85
2023/11/28 01:10:00;;;;;;;14.05;8.02;;;0.30;99.90;;;1.11;100.00;98854.91;5021366;28;20048;-85
2023/11/28 01:12:26;;;;;;;13.10;8.00;;;0.30;99.90;;;1.36;100.00;98857.09;5022656;28;20037;-87
2023/11/28 01:14:52;;;;;;;14.07;8.00;;;0.30;99.90;;;1.43;100.00;98864.13;5013114;28;20074;-88
2023/11/28 01:17:18;;;;;;;14.38;8.68;;;0.30;99.90;;;1.25;100.00;98861.19;5040018;28;20042;-85
2023/11/28 01:19:44;;;;;;;13.38;7.97;;;0.30;99.90;;;1.09;100.00;98852.41;5026463;28;20041;-85
2023/11/28 01:22:11;;;;;;;14.30;8.75;;;0.20;99.90;;;1.11;100.00;98871.84;5024086;28;20041;-83
2023/11/28 01:24:39;;;;;;;15.02;8.75;;;0.20;99.90;;;1.11;100.00;98871.03;5009922;28;20038;-83
2023/11/28 01:27:05;;;;;;;15.00;8.73;;;0.20;99.90;;;1.00;100.00;98854.44;5024455;28;20458;-84
2023/11/28 01:29:32;;;;;;;14.55;8.40;;;0.20;99.90;;;1.12;100.00;98870.00;5027574;28;20121;-86
2023/11/28 01:31:59;;;;;;;15.40;8.13;;;0.20;99.90;;;0.97;100.00;98870.94;5009598;28;20428;-83
2023/11/28 01:34:25;;;;;;;13.50;7.57;;;0.20;99.90;;;1.06;100.00;98871.63;5013695;28;20034;-85
2023/11/28 01:36:51;;;;;;;13.32;8.05;;;0.20;99.90;;;0.94;100.00;98879.41;5017049;28;20037;-85
2023/11/28 01:39:18;;;;;;;12.70;8.10;;;0.20;99.90;;;0.99;100.00;98868.88;5011045;28;20038;-83
2023/11/28 01:41:48;;;;;;;14.55;7.65;;;0.20;99.90;;;0.83;100.00;98878.09;5012135;28;20045;-82
2023/11/28 01:44:15;;;;;;;12.65;8.00;;;0.20;99.90;;;1.04;100.00;98878.19;5015958;28;20041;-83
2023/11/28 01:46:43;;;;;;;14.30;7.60;;;0.20;99.90;;;0.82;100.00;98884.50;5020110;28;20474;-84
2023/11/28 01:49:11;;;;;;;13.23;8.10;;;0.20;99.90;;;0.78;100.00;98874.31;5037102;28;20121;-83
2023/11/28 01:51:38;;;;;;;14.40;7.88;;;0.10;99.90;;;1.12;100.00;98880.75;5028470;28;20079;-84
2023/11/28 01:54:07;;;;;;;13.45;7.65;;;0.10;99.90;;;1.06;100.00;98871.63;5020208;28;20033;-83
2023/11/28 01:56:35;;;;;;;15.45;6.95;;;0.10;99.90;;;0.78;100.00;98882.38;5018262;28;20038;-82
2023/11/28 01:59:04;;;;;;;12.77;7.00;;;0.10;99.90;;;0.83;100.00;98870.03;5016294;28;20048;-82
2023/11/28 02:01:31;;;;;;;14.25;8.00;;;0.10;99.90;;;1.12;100.00;98886.13;5025694;28;20053;-84
2023/11/28 02:03:57;;;;;;;13.27;8.10;;;0.10;99.90;;;1.02;100.00;98883.78;5027024;28;20034;-85
2023/11/28 02:06:23;;;;;;;14.68;7.97;;;0.10;99.90;;;1.04;100.00;98886.25;5037449;28;20049;-83
2023/11/28 02:08:49;;;;;;;12.93;7.57;;;0.10;99.90;;;0.92;100.00;98877.94;5031206;28;20042;-83
2023/11/28 02:11:17;;;;;;;16.00;7.82;;;0.10;99.90;;;0.78;100.00;98877.00;5030141;28;20041;-84
2023/11/28 02:13:43;;;;;;;13.48;8.00;;;0.10;99.90;;;0.98;100.00;98890.59;5016763;28;20116;-83
2023/11/28 02:16:15;;;;;;;15.88;7.82;;;0.10;99.90;;;0.99;100.00;98903.81;5013674;28;20065;-84
2023/11/28 02:18:43;;;;;;;14.32;7.03;;;0.10;99.90;;;0.80;100.00;98885.72;5024360;28;20539;-82
2023/11/28 02:21:12;;;;;;;15.75;8.20;;;0.10;99.90;;;0.82;100.00;98903.28;5019515;28;20042;-83
2023/11/28 02:23:38;;;;;;;13.50;7.75;;;0.10;99.90;;;0.79;100.00;98897.47;5019211;28;20041;-84
2023/11/28 02:26:20;;;;;;;15.45;7.97;;;0.00;99.90;;;0.60;100.00;98897.16;5025950;28;20426;-80
2023/11/28 02:28:46;;;;;;;13.27;7.78;;;0.00;99.90;;;0.85;100.00;98908.25;5036102;28;20088;-82
2023/11/28 02:31:12;;;;;;;15.35;7.95;;;0.00;99.90;;;0.71;100.00;98909.22;5023583;28;20433;-84
2023/11/28 02:33:38;;;;;;;16.40;8.07;;;0.00;99.90;;;1.07;100.00;98918.94;5025809;28;20034;-82
2023/11/28 02:36:05;;;;;;;16.20;8.77;;;0.00;99.90;;;0.72;100.00;98913.53;5030983;28;20091;-81
2023/11/28 02:38:31;;;;;;;17.70;9.05;;;0.00;99.90;;;0.91;100.00;98917.41;5026573;28;20033;-82
2023/11/28 02:40:56;;;;;;;16.85;8.80;;;0.00;99.90;;;0.81;100.00;98911.56;5011364;28;20048;-83
2023/11/28 02:43:22;;;;;;;15.73;9.60;;;0.00;99.90;;;0.36;100.00;98920.69;5016398;28;20055;-83
2023/11/28 02:45:48;;;;;;;18.20;9.05;;;0.00;99.90;;;0.54;100.00;98911.34;5016141;28;20158;-86
2023/11/28 02:48:14;;;;;;;17.80;8.90;;;0.00;99.90;;;0.61;100.00;98919.44;5017359;28;20092;-83
2023/11/28 02:50:40;;;;;;;18.13;9.05;;;0.00;99.90;;;0.55;100.00;98899.59;5031904;28;20037;-84
2023/11/28 02:53:07;;;;;;;18.10;9.32;;;0.00;99.90;;;0.88;100.00;98907.03;5012721;28;20041;-85
2023/11/28 02:55:33;;;;;;;15.20;8.23;;;0.00;99.90;;;0.70;100.00;98926.34;5030327;28;20045;-82
2023/11/28 02:58:00;;;;;;;19.88;9.18;;;0.00;99.90;;;0.77;100.00;98926.38;5017091;28;20061;-83
2023/11/28 03:00:26;;;;;;;18.73;10.40;;;-0.10;99.90;;;0.86;100.00;98927.91;5032783;28;20060;-83
2023/11/28 03:02:52;;;;;;;20.35;10.10;;;0.00;99.90;;;0.59;100.00;98922.31;5021832;28;20042;-81
2023/11/28 03:05:18;;;;;;;22.05;10.00;;;-0.10;99.90;;;0.51;100.00;98909.88;5040368;28;20085;-81
2023/11/28 03:07:43;;;;;;;17.67;9.43;;;-0.10;99.90;;;0.72;100.00;98884.03;5026246;28;20140;-84
2023/11/28 03:10:09;;;;;;;19.48;9.43;;;-0.10;99.90;;;0.61;100.00;98887.22;5021953;28;20041;-84
2023/11/28 03:12:35;;;;;;;19.38;9.82;;;-0.10;99.90;;;0.81;100.00;98903.50;5020557;28;20076;-85
2023/11/28 03:15:03;;;;;;;21.15;9.70;;;-0.10;99.90;;;0.84;100.00;98911.16;5031700;28;20040;-83
2023/11/28 03:17:29;;;;;;;18.80;9.82;;;-0.10;99.90;;;0.66;100.00;98922.34;5023996;28;20030;-84
2023/11/28 03:19:55;;;;;;;18.60;9.85;;;-0.10;99.90;;;0.37;100.00;98911.63;5016503;28;20045;-82
2023/11/28 03:22:20;;;;;;;16.48;8.10;;;-0.20;99.90;;;0.44;100.00;98925.09;5004232;28;20048;-82
2023/11/28 03:24:47;;;;;;;16.65;8.65;;;-0.20;99.90;;;0.36;100.00;98931.41;5033004;28;20044;-83
2023/11/28 03:27:14;;;;;;;18.83;8.93;;;-0.20;99.90;;;0.52;100.00;98916.91;5016033;28;20511;-82
2023/11/28 03:29:41;;;;;;;18.27;8.65;;;-0.20;99.90;;;0.71;100.00;98931.50;5014958;28;20091;-85
2023/11/28 03:32:07;;;;;;;18.80;9.32;;;-0.20;99.90;;;0.52;100.00;98921.41;5019831;28;20038;-82
2023/11/28 03:34:33;;;;;;;19.88;9.60;;;-0.20;99.90;;;0.67;100.00;98938.28;5026362;28;20127;-85
2023/11/28 03:36:58;;;;;;;21.95;9.60;;;-0.20;99.90;;;0.68;100.00;98945.31;5033193;28;20037;-83
2023/11/28 03:39:24;;;;;;;18.20;9.15;;;-0.20;99.90;;;0.66;100.00;98944.69;5021887;28;20030;-85
2023/11/28 03:41:51;;;;;;;19.30;9.80;;;-0.20;99.90;;;0.78;100.00;98946.81;5029269;28;20135;-83
2023/11/28 03:44:17;;;;;;;20.58;10.02;;;-0.20;99.90;;;0.75;100.00;98949.91;5025458;28;20088;-83
2023/11/28 03:46:43;;;;;;;18.20;8.77;;;-0.20;99.90;;;0.59;100.00;98953.69;5022967;28;20498;-84
2023/11/28 03:49:09;;;;;;;16.67;8.23;;;-0.20;99.90;;;0.23;100.00;98961.63;5012425;28;20054;-82
2023/11/28 03:51:36;;;;;;;20.45;10.38;;;-0.20;99.90;;;0.41;100.00;98955.00;5018922;28;20045;-84
2023/11/28 03:54:03;;;;;;;21.98;9.40;;;-0.20;99.90;;;0.59;100.00;98964.44;5028827;28;20041;-85
2023/11/28 03:56:28;;;;;;;20.48;9.77;;;-0.20;99.90;;;0.71;100.00;98973.63;5047305;28;20109;-85
2023/11/28 03:58:57;;;;;;;20.15;9.35;;;-0.20;99.90;;;0.69;100.00;98981.88;5014787;28;20069;-83
2023/11/28 04:01:23;;;;;;;18.40;8.15;;;-0.20;99.90;;;0.07;100.00;98973.44;5030213;28;20052;-83
2023/11/28 04:03:49;;;;;;;18.02;9.18;;;-0.30;99.90;;;0.46;100.00;98975.88;5013008;28;20425;-84
2023/11/28 04:06:15;;;;;;;15.40;6.80;;;-0.20;99.90;;;0.25;100.00;98988.25;5042031;28;20025;-82
2023/11/28 04:08:40;;;;;;;15.07;6.47;;;-0.30;99.90;;;0.11;100.00;98996.16;5023372;28;20121;-83
2023/11/28 04:11:06;;;;;;;16.60;7.32;;;-0.30;99.90;;;0.16;100.00;98994.75;5036278;28;20050;-82
2023/11/28 04:13:32;;;;;;;10.70;4.78;;;-0.30;99.90;;;-0.03;100.00;98991.66;5034195;28;20030;-83
2023/11/28 04:15:58;;;;;;;16.90;7.53;;;-0.30;99.90;;;0.11;100.00;98996.16;5032149;28;20128;-82
2023/11/28 04:18:27;;;;;;;14.88;7.57;;;-0.30;99.90;;;-0.03;100.00;99000.53;5021793;28;20038;-83
2023/11/28 04:20:53;;;;;;;16.75;7.07;;;-0.30;99.90;;;-0.07;100.00;99011.81;5017391;28;20029;-81
2023/11/28 04:23:19;;;;;;;15.13;7.88;;;-0.30;99.90;;;-0.20;100.00;98999.94;5032733;28;20037;-84
2023/11/28 04:25:45;;;;;;;12.23;6.60;;;-0.40;99.90;;;-0.33;100.00;99005.09;5024438;28;20033;-83
2023/11/28 04:28:11;;;;;;;15.73;8.63;;;-0.40;99.90;;;0.01;100.00;99008.22;5012140;28;20034;-84
2023/11/28 04:30:37;;;;;;;19.70;8.68;;;-0.40;99.90;;;-0.01;100.00;99000.34;5017879;28;20134;-84
2023/11/28 04:33:03;;;;;;;15.82;6.93;;;-0.40;99.90;;;-0.12;100.00;99014.25;5006596;28;20042;-82
2023/11/28 04:35:29;;;;;;;21.20;8.55;;;-0.40;99.90;;;0.01;100.00;99010.88;5023987;28;20096;-83
2023/11/28 04:37:54;;;;;;;15.18;7.65;;;-0.40;99.90;;;0.00;100.00;98996.66;5015267;28;20068;-84
2023/11/28 04:40:20;;;;;;;23.00;7.90;;;-0.40;99.90;;;-0.32;100.00;99002.25;5037938;28;20036;-84
2023/11/28 04:42:47;;;;;;;20.20;7.88;;;-0.40;99.90;;;-0.23;100.00;98999.47;5018147;28;20037;-83
2023/11/28 04:45:13;;;;;;;19.55;7.53;;;-0.50;99.90;;;-0.07;100.00;99025.22;5023028;28;20059;-81
2023/11/28 04:47:38;;;;;;;18.73;8.40;;;-0.50;99.90;;;0.01;100.00;99037.69;5019753;28;20436;-84
2023/11/28 04:50:05;;;;;;;18.00;8.10;;;-0.40;99.90;;;0.07;100.00;99037.78;5021210;28;20116;-83
2023/11/28 04:52:31;;;;;;;21.50;8.60;;;-0.50;99.90;;;-0.28;100.00;99029.50;5026352;28;20029;-82
2023/11/28 04:54:57;;;;;;;22.17;7.93;;;-0.50;99.90;;;-0.20;100.00;99031.25;5035938;28;20068;-84
2023/11/28 04:57:23;;;;;;;16.75;7.55;;;-0.50;99.90;;;-0.24;100.00;99049.56;5030331;28;20025;-83
2023/11/28 04:59:49;;;;;;;16.48;7.30;;;-0.50;99.90;;;-0.17;100.00;99042.44;5033883;28;20033;-83
2023/11/28 05:02:15;;;;;;;18.75;8.25;;;-0.60;99.90;;;-0.15;100.00;99056.50;5023182;28;20162;-82
2023/11/28 05:04:40;;;;;;;19.40;8.68;;;-0.60;99.90;;;-0.01;100.00;99056.66;5011637;28;20049;-82
2023/11/28 05:07:06;;;;;;;15.05;5.68;;;-0.60;99.90;;;-0.51;100.00;99056.41;5013245;28;20038;-82
2023/11/28 05:09:33;;;;;;;16.35;7.85;;;-0.70;99.90;;;-0.08;100.00;99053.06;5023559;28;20667;-83
2023/11/28 05:11:59;;;;;;;17.77;8.03;;;-0.70;99.90;;;-0.02;100.00;99049.63;5018843;28;20060;-83
2023/11/28 05:14:25;;;;;;;17.17;6.78;;;-0.70;99.90;;;-0.12;100.00;99073.22;5007697;28;20072;-82
2023/11/28 05:16:51;;;;;;;13.63;5.22;;;-0.70;99.90;;;-0.36;100.00;99070.66;5014075;28;20030;-82
2023/11/28 05:19:17;;;;;;;24.48;8.00;;;-0.70;99.90;;;-0.10;100.00;99076.53;5026502;28;20403;-83
2023/11/28 05:21:44;;;;;;;14.52;7.10;;;-0.70;99.90;;;-0.36;100.00;99075.16;5037490;28;20035;-82
2023/11/28 05:24:10;;;;;;;14.68;6.07;;;-0.70;99.90;;;-0.41;100.00;99094.47;5021651;28;20030;-82
2023/11/28 05:26:36;;;;;;;15.65;7.05;;;-0.70;99.90;;;-0.39;100.00;99080.88;5026240;28;20121;-82
2023/11/28 05:29:03;;;;;;;17.15;6.57;;;-0.70;99.90;;;-0.36;100.00;99102.81;5031401;28;20038;-84
2023/11/28 05:31:29;;;;;;;9.13;3.97;;;-0.80;99.90;;;-0.58;100.00;99104.50;5018887;28;20029;-83
2023/11/28 05:33:55;;;;;;;13.32;4.95;;;-0.80;99.90;;;-0.31;100.00;99099.56;5041772;28;20551;-82
2023/11/28 05:36:22;;;;;;;15.65;6.28;;;-0.80;99.90;;;-0.26;100.00;99099.84;5036179;28;20108;-86
2023/11/28 05:38:48;;;;;;;14.82;5.43;;;-0.80;99.90;;;-0.35;100.00;99087.53;5030168;28;20041;-84
2023/11/28 05:41:14;;;;;;;9.07;4.05;;;-0.80;99.90;;;-0.56;100.00;99097.13;5021112;28;20038;-81
2023/11/28 05:43:40;;;;;;;17.10;6.22;;;-0.80;99.90;;;-0.58;100.00;99091.13;5012670;28;20042;-82
2023/11/28 05:46:06;;;;;;;10.30;4.00;;;-0.80;99.90;;;-0.48;100.00;99106.94;5024221;28;20125;-80
2023/11/28 05:48:32;;;;;;;10.32;4.70;;;-0.90;99.90;;;-0.55;100.00;99103.31;5039449;28;20066;-81
2023/11/28 05:50:58;;;;;;;9.35;3.63;;;-0.80;99.90;;;-0.45;100.00;99119.97;5029980;28;20034;-80
2023/11/28 05:53:23;;;;;;;9.10;4.57;;;-0.90;99.90;;;-0.57;100.00;99118.75;5058740;28;20033;-80
2023/11/28 05:55:49;;;;;;;9.70;4.95;;;-0.80;99.90;;;-0.45;100.00;99128.00;5037320;28;20025;-80
2023/11/28 05:58:15;;;;;;;11.88;4.18;;;-0.90;99.90;;;-0.43;100.00;99128.66;5022534;28;20041;-78
2023/11/28 06:00:41;;;;;;;22.52;6.03;;;-0.90;99.90;;;-0.61;100.00;99134.34;5019442;28;20502;-79
2023/11/28 06:03:08;;;;;;;9.85;4.38;;;-0.90;99.90;;;-0.44;100.00;99129.66;5022517;28;20046;-79
2023/11/28 06:05:37;;;;;;;10.10;4.53;;;-0.90;99.90;;;-0.42;100.00;99149.06;5023876;28;20485;-78
2023/11/28 06:08:05;;;;;;;10.48;3.95;;;-0.90;99.90;;;-0.56;100.00;99153.38;5026807;28;20490;-78
2023/11/28 06:10:30;;;;;;;7.60;3.65;;;-0.90;99.90;;;-0.42;100.00;99156.28;5027219;28;20038;-79
2023/11/28 06:12:57;;;;;;;11.25;3.47;;;-0.90;99.90;;;-0.55;100.00;99154.22;5018380;28;20033;-79
2023/11/28 06:15:23;;;;;;;13.00;5.23;;;-1.00;99.90;;;-0.30;100.00;99162.88;5019535;28;20026;-77
2023/11/28 06:17:49;;;;;;;7.47;3.80;;;-0.90;99.90;;;-0.45;100.00;99163.69;5036609;28;20298;-78
2023/11/28 06:20:15;;;;;;;9.93;3.83;;;-1.00;99.90;;;-0.58;100.00;99171.50;5011992;28;20029;-78
2023/11/28 06:22:45;;;;;;;9.70;4.40;;;-1.00;99.90;;;-0.47;100.00;99176.44;5018685;28;20080;-78
2023/11/28 06:25:11;;;;;;;8.07;3.72;;;-1.00;99.90;;;-0.47;100.00;99179.13;5010783;28;20041;-78
2023/11/28 06:27:37;;;;;;;8.60;3.58;;;-1.00;99.90;;;-0.49;100.00;99177.63;5012269;28;20111;-79
2023/11/28 06:30:06;;;;;;;9.00;3.92;;;-1.00;99.90;;;-0.42;100.00;99181.22;5012565;28;20045;-78
2023/11/28 06:32:33;;;;;;;8.40;3.92;;;-1.00;99.90;;;-0.44;100.00;99194.81;5015500;28;20038;-78
2023/11/28 06:34:58;;;;;;;10.80;3.47;;;-1.00;99.90;;;-0.59;100.00;99201.97;5017474;28;20034;-79
2023/11/28 06:37:24;;;;;;;7.53;3.33;;;-1.00;99.90;;;-0.23;100.00;99208.53;5016555;28;20496;-78
2023/11/28 06:39:51;;;;;;;7.07;2.75;;;-0.90;99.90;;;-0.31;100.00;99217.47;5033393;28;20046;-76
2023/11/28 06:42:18;;;;;;;5.40;3.28;;;-0.80;99.90;;;-0.60;100.00;99230.63;5018921;28;20382;-78
2023/11/28 06:44:44;;;;;;;6.55;3.03;;;-0.90;99.90;;;-0.52;100.00;99232.41;5014102;28;20037;-78
2023/11/28 06:47:09;;;;;;;5.55;2.30;;;-1.00;99.90;;;-0.65;100.00;99241.06;5034166;28;20103;-78
2023/11/28 06:49:35;;;;;;;5.85;2.30;;;-1.00;99.90;;;-0.71;100.00;99243.59;5021883;28;20116;-77
2023/11/28 06:52:02;;;;;;;6.28;2.65;;;-1.10;99.90;;;-0.59;100.00;99247.53;5039581;28;20089;-76
2023/11/28 06:54:29;;;;;;;7.25;2.53;;;-1.10;99.90;;;-0.65;100.00;99258.94;5026886;28;20080;-76
2023/11/28 06:56:55;;;;;;;6.68;2.65;;;-1.10;99.90;;;-0.64;100.00;99263.31;5024348;28;20040;-76
2023/11/28 06:59:21;;;;;;;4.50;2.33;;;-1.10;99.90;;;-0.70;100.00;99272.06;5015762;28;20034;-77
2023/11/28 07:01:48;;;;;;;8.63;2.92;;;-1.10;99.90;;;-0.69;100.00;99257.66;5015344;28;20052;-77
2023/11/28 07:04:14;;;;;;;4.60;2.00;;;-1.10;99.90;;;-0.74;100.00;99282.28;5016611;28;20076;-79
2023/11/28 07:06:40;;;;;;;5.28;2.10;;;-1.10;99.90;;;-0.76;100.00;99286.97;5026367;28;20509;-76
2023/11/28 07:09:06;;;;;;;6.28;2.92;;;-1.10;99.90;;;-0.60;100.00;99291.41;5025488;28;20255;-77
2023/11/28 07:11:33;;;;;;;5.60;2.58;;;-1.10;99.90;;;-0.65;100.00;99291.09;5016641;28;20041;-77
2023/11/28 07:14:00;;;;;;;5.75;2.97;;;-1.10;99.90;;;-0.72;100.00;99301.69;5016688;28;20041;-76
2023/11/28 07:16:26;;;;;;;7.45;2.53;;;-1.10;99.90;;;-0.84;100.00;99306.59;5025705;28;20029;-76
2023/11/28 07:18:52;;;;;;;6.85;3.10;;;-1.10;99.90;;;-0.79;100.00;99312.28;5020374;28;20074;-77
2023/11/28 07:21:18;;;;;;;7.07;3.17;;;-1.20;99.90;;;-0.53;100.00;99308.47;5018927;28;20474;-77
2023/11/28 07:23:44;;;;;;;5.72;2.55;;;-1.20;99.90;;;-0.88;100.00;99307.97;5019105;28;20037;-77
2023/11/28 07:26:10;;;;;;;4.57;1.83;;;-1.20;99.90;;;-0.76;100.00;99325.31;5023872;28;20030;-78
2023/11/28 07:28:37;;;;;;;4.95;2.03;;;-1.20;99.90;;;-0.72;100.00;99325.78;5019102;28;20236;-78
2023/11/28 07:31:03;;;;;;;6.03;2.70;;;-1.20;99.90;;;-0.67;100.00;99331.44;5024923;28;20049;-78
2023/11/28 07:33:29;;;;;;;5.55;2.25;;;-1.20;99.90;;;-0.84;100.00;99341.41;5015647;28;20033;-77
2023/11/28 07:35:54;;;;;;;5.32;2.60;;;-1.20;99.90;;;-0.79;100.00;99333.72;5024871;28;20062;-78
2023/11/28 07:38:21;;;;;;;5.07;1.85;;;-1.30;99.90;;;-0.79;100.00;99340.91;5015141;28;20037;-78
2023/11/28 07:40:48;;;;;;;5.18;2.50;;;-1.30;99.90;;;-0.66;100.00;99343.00;5021150;28;20398;-78
2023/11/28 07:43:14;;;;;;;7.28;2.45;;;-1.30;99.90;;;-0.80;100.00;99353.44;5013338;28;20044;-78
2023/11/28 07:45:40;;;;;;;7.75;2.92;;;-1.30;99.90;;;-0.73;100.00;99346.41;5035305;28;20087;-77
2023/11/28 07:48:06;;;;;;;6.50;2.28;;;-1.30;99.90;;;-0.83;100.00;99353.78;5020576;28;20370;-78
2023/11/28 07:50:33;;;;;;;4.95;2.30;;;-1.30;99.90;;;-0.76;100.00;99357.47;5016960;28;20491;-79
2023/11/28 07:53:00;;;;;;;4.05;2.30;;;-1.30;99.90;;;-0.98;100.00;99371.63;5015583;28;20038;-78
2023/11/28 07:55:26;;;;;;;4.97;2.40;;;-1.40;99.90;;;-0.88;100.00;99366.88;5015267;28;20049;-78
2023/11/28 07:57:52;;;;;;;3.72;2.10;;;-1.40;99.90;;;-0.97;100.00;99378.63;5018156;28;20036;-80
2023/11/28 08:00:20;;;;;;;5.95;2.20;;;-1.40;99.90;;;-0.86;100.00;99386.28;5012892;28;20405;-78
2023/11/28 08:02:47;;;;;;;6.05;2.60;;;-1.40;99.90;;;-0.90;100.00;99376.94;5017048;28;20048;-78
2023/11/28 08:05:13;;;;;;;3.65;1.90;;;-1.50;99.90;;;-1.00;100.00;99387.03;5018515;28;20045;-78
2023/11/28 08:07:38;;;;;;;7.75;2.70;;;-1.50;99.90;;;-1.14;100.00;99385.88;5021221;28;20164;-78
2023/11/28 08:10:07;;;;;;;5.60;2.30;;;-1.60;99.90;;;-1.09;100.00;99387.03;5019236;28;20042;-78
2023/11/28 08:12:33;;;;;;;5.30;2.58;;;-1.70;99.90;;;-1.11;100.00;99398.94;5024519;28;20121;-78
2023/11/28 08:14:58;;;;;;;5.63;2.50;;;-1.70;99.90;;;-1.24;100.00;99384.22;5041982;28;20037;-78
2023/11/28 08:17:25;;;;;;;6.88;2.63;;;-1.70;99.90;;;-1.16;100.00;99391.41;5022592;28;20034;-78
2023/11/28 08:19:50;;;;;;;6.03;2.90;;;-1.70;99.90;;;-1.22;100.00;99397.44;5020785;28;20033;-77
2023/11/28 08:22:17;;;;;;;3.70;1.88;;;-1.70;99.90;;;-1.28;100.00;99404.31;5015525;28;20499;-77
2023/11/28 08:24:44;;;;;;;4.75;2.35;;;-1.70;99.90;;;-1.30;100.00;99411.66;5039999;28;20033;-78
2023/11/28 08:27:10;;;;;;;6.53;2.88;;;-1.70;99.90;;;-1.25;100.00;99413.84;5028546;28;20030;-77
2023/11/28 08:29:35;;;;;;;3.47;1.88;;;-1.70;99.90;;;-1.40;100.00;99419.06;5014736;28;20064;-77
2023/11/28 08:32:01;;;;;;;8.68;2.65;;;-1.70;99.90;;;-1.12;100.00;99430.19;5016489;28;20041;-78
2023/11/28 08:34:27;;;;;;;7.85;2.45;;;-1.70;99.90;;;-1.20;100.00;99428.38;5014091;28;20042;-78
2023/11/28 08:36:54;;;;;;;6.05;2.50;;;-1.60;99.90;;;-0.79;100.00;99421.25;5014170;28;20038;-79
2023/11/28 08:39:20;;;;;;;5.07;2.20;;;-1.60;99.90;;;-1.07;100.00;99437.72;5018162;28;20117;-80
2023/11/28 08:41:46;;;;;;;4.72;2.28;;;-1.60;99.90;;;-1.09;100.00;99437.88;5040703;28;20117;-79
2023/11/28 08:44:12;;;;;;;4.72;2.30;;;-1.60;99.90;;;-0.97;100.00;99434.88;5017702;28;20041;-78
2023/11/28 08:46:38;;;;;;;6.68;2.10;;;-1.50;99.90;;;-0.92;100.00;99440.53;5019470;28;20453;-78
2023/11/28 08:49:05;;;;;;;4.22;2.20;;;-1.40;99.90;;;-0.80;100.00;99441.81;5016870;28;20038;-79
2023/11/28 08:51:31;;;;;;;5.63;2.90;;;-1.30;99.90;;;-0.62;100.00;99451.50;5041642;28;20108;-79
2023/11/28 08:53:58;;;;;;;6.43;2.35;;;-1.20;99.90;;;-0.67;100.00;99454.69;5026144;28;20061;-79
2023/11/28 08:56:24;;;;;;;4.38;2.20;;;-1.20;99.90;;;-0.52;100.00;99451.28;5019135;28;20038;-81
2023/11/28 08:58:50;;;;;;;4.18;1.80;;;-1.10;99.90;;;-0.32;100.00;99455.22;5017971;28;20042;-80
2023/11/28 09:01:16;;;;;;;5.60;2.30;;;-0.90;99.90;;;-0.06;100.00;99461.28;5024993;28;20045;-80
2023/11/28 09:03:42;;;;;;;5.07;2.53;;;-0.80;99.90;;;0.17;100.00;99466.69;5015295;28;20474;-79
2023/11/28 09:06:09;;;;;;;4.82;2.00;;;-0.60;99.90;;;-0.20;100.00;99463.72;5024378;28;20469;-78
2023/11/28 09:08:36;;;;;;;4.68;2.17;;;-0.60;99.90;;;-0.23;100.00;99466.75;5031647;28;20045;-80
2023/11/28 09:11:05;;;;;;;4.53;2.13;;;-0.70;99.90;;;-0.41;100.00;99475.00;5029279;28;20045;-81
2023/11/28 09:13:30;;;;;;;4.63;1.80;;;-0.80;99.90;;;-0.37;100.00;99473.69;5018497;28;20130;-83
2023/11/28 09:15:59;;;;;;;4.28;1.80;;;-0.70;99.90;;;-0.16;100.00;99481.09;5024107;28;20096;-82
2023/11/28 09:18:24;;;;;;;4.97;2.05;;;-0.70;99.90;;;-0.16;100.00;99464.16;5032912;28;20097;-81
2023/11/28 09:20:50;;;;;;;3.30;1.48;;;-0.60;99.90;;;-0.17;100.00;99487.47;5016618;28;20127;-84
2023/11/28 09:23:16;;;;;;;4.43;1.90;;;-0.60;99.90;;;0.08;100.00;99482.00;5013971;28;20056;-83
2023/11/28 09:25:42;;;;;;;3.25;1.58;;;-0.50;99.90;;;-0.17;100.00;99482.13;5033861;28;20046;-84
2023/11/28 09:28:08;;;;;;;3.40;1.67;;;-0.40;99.90;;;-0.08;100.00;99490.97;5016971;28;20061;-82
2023/11/28 09:30:33;;;;;;;4.97;2.15;;;-0.30;99.90;;;0.21;100.00;99480.56;5040239;28;20045;-84
2023/11/28 09:32:59;;;;;;;4.20;1.50;;;0.00;99.90;;;0.22;100.00;99487.59;5018341;28;20034;-88
2023/11/28 09:35:25;;;;;;;3.25;1.70;;;0.50;99.90;;;0.08;100.00;99490.03;5019152;28;20018;-86
2023/11/28 09:37:51;;;;;;;8.00;2.28;;;0.50;99.90;;;0.28;100.00;99505.69;5040395;28;20041;-84
2023/11/28 09:40:18;;;;;;;5.50;2.20;;;0.60;99.90;;;0.74;100.00;99509.34;5019114;28;20032;-83
2023/11/28 09:42:51;;;;;;;4.32;1.48;;;1.10;99.90;;;0.55;100.00;99503.47;5013465;28;20045;-83
2023/11/28 09:45:19;;;;;;;3.65;1.50;;;1.00;99.90;;;0.86;100.00;99500.69;5015717;28;20516;-84
2023/11/28 09:47:48;;;;;;;3.83;1.80;;;1.10;99.90;;;1.10;100.00;99511.41;5033119;28;20128;-84
2023/11/28 09:50:15;;;;;;;4.13;1.80;;;1.20;99.90;;;1.29;100.00;99513.53;5021060;28;20034;-83
2023/11/28 09:52:44;;;;;;;4.10;1.75;;;1.30;99.90;;;2.46;100.00;99502.16;5015484;28;20478;-85
2023/11/28 09:55:14;;;;;;;3.45;1.88;;;1.60;99.90;;;2.03;100.00;99512.88;5021519;28;20041;-82
2023/11/28 09:57:45;;;;;;;4.80;2.08;;;1.70;99.90;;;1.93;100.00;99503.22;5022524;28;20038;-84
2023/11/28 10:00:19;;;;;;;3.65;1.92;;;1.70;99.90;;;2.20;100.00;99513.47;5013895;28;20081;-82
2023/11/28 10:02:49;;;;;;;2.67;1.45;;;1.90;99.90;;;2.44;100.00;99498.81;5021066;28;20049;-82
2023/11/28 10:05:16;;;;;;;2.65;1.25;;;2.10;99.90;;;1.98;100.00;99516.94;5017611;28;20159;-82
2023/11/28 10:07:45;;;;;;;4.95;1.70;;;1.90;99.90;;;1.92;100.00;99503.44;5029022;28;20044;-83
2023/11/28 10:10:13;;;;;;;3.25;1.70;;;1.80;99.90;;;2.71;100.00;99510.69;5039509;28;20033;-83
2023/11/28 10:12:39;;;;;;;2.90;1.63;;;2.10;99.90;;;2.25;100.00;99511.88;5027071;28;20048;-83